Time;durP1;ratioP1;P1;durP2;ratioP2;P2;SDS_P1;SDS_P2;PMS_P1;PMS_P2;Temp;Humidity;BMP_temperature;BMP_pressure;BME280_temperature;BME280_humidity;BME280_pressure;Samples;Min_cycle;Max_cycle;Signal;HPM_P1;HPM_P2
2022/04/06 00:01:43;;;;;;;28.42;13.82;;;9.70;99.90;;;;;;5030327;28;20461;-81
2022/04/06 00:04:09;;;;;;;28.65;15.35;;;9.70;99.90;;;;;;5030592;28;20038;-81
2022/04/06 00:06:35;;;;;;;27.13;15.30;;;9.60;99.90;;;;;;5014038;28;20395;-81
2022/04/06 00:09:01;;;;;;;24.75;13.98;;;9.70;99.90;;;;;;5030637;28;20132;-81
2022/04/06 00:11:27;;;;;;;25.25;14.85;;;9.60;99.90;;;;;;5029950;28;20047;-81
2022/04/06 00:13:52;;;;;;;28.35;14.73;;;9.60;99.90;;;;;;5030119;28;20542;-81
2022/04/06 00:16:18;;;;;;;28.55;14.00;;;9.70;99.90;;;;;;5030329;28;20455;-81
2022/04/06 00:18:43;;;;;;;26.13;13.50;;;9.60;99.90;;;;;;5030310;28;20034;-81
2022/04/06 00:21:10;;;;;;;27.80;13.52;;;9.60;99.90;;;;;;5029872;28;20044;-81
2022/04/06 00:23:36;;;;;;;24.17;13.55;;;9.70;99.90;;;;;;5013854;28;20406;-81
2022/04/06 00:26:02;;;;;;;25.80;13.77;;;9.60;99.90;;;;;;5030436;28;20033;-81
2022/04/06 00:28:27;;;;;;;26.13;13.52;;;9.60;99.90;;;;;;5013376;28;20048;-81
2022/04/06 00:30:53;;;;;;;30.13;14.40;;;9.60;99.90;;;;;;5029852;28;20050;-81
2022/04/06 00:33:18;;;;;;;31.00;15.13;;;9.60;99.90;;;;;;5030070;28;20065;-81
2022/04/06 00:35:44;;;;;;;27.35;13.32;;;9.60;99.90;;;;;;5029573;28;20040;-81
2022/04/06 00:38:10;;;;;;;24.60;14.43;;;9.60;99.90;;;;;;5030123;28;20084;-81
2022/04/06 00:40:37;;;;;;;21.30;13.13;;;9.60;99.90;;;;;;5013488;28;20038;-81
2022/04/06 00:43:08;;;;;;;31.52;14.43;;;9.60;99.90;;;;;;5030135;28;20033;-81
2022/04/06 00:45:33;;;;;;;27.30;13.98;;;9.60;99.90;;;;;;5030135;28;20461;-81
2022/04/06 00:47:59;;;;;;;27.83;13.55;;;9.50;99.90;;;;;;5029889;28;20049;-81
2022/04/06 00:50:25;;;;;;;29.58;13.00;;;9.50;99.90;;;;;;5029629;28;20041;-79
2022/04/06 00:52:56;;;;;;;26.98;13.18;;;9.50;99.90;;;;;;5030485;28;20041;-80
2022/04/06 00:55:25;;;;;;;27.65;13.98;;;9.50;99.90;;;;;;5033815;28;20041;-80
2022/04/06 00:57:50;;;;;;;25.35;11.98;;;9.60;99.90;;;;;;5049224;28;20033;-81
2022/04/06 01:00:16;;;;;;;29.63;14.00;;;9.60;99.90;;;;;;5012027;28;20560;-80
2022/04/06 01:02:42;;;;;;;25.83;12.82;;;9.60;99.90;;;;;;5030703;28;20042;-79
2022/04/06 01:05:08;;;;;;;23.42;11.15;;;9.60;99.90;;;;;;5029216;28;20041;-81
2022/04/06 01:07:35;;;;;;;24.17;10.88;;;9.50;99.90;;;;;;5030114;28;20076;-81
2022/04/06 01:10:01;;;;;;;24.25;11.57;;;9.60;99.90;;;;;;5029446;28;20120;-80
2022/04/06 01:12:28;;;;;;;27.70;12.35;;;9.60;99.90;;;;;;5013425;28;20569;-81
2022/04/06 01:14:54;;;;;;;28.70;11.70;;;9.60;99.90;;;;;;5029521;28;20107;-81
2022/04/06 01:17:21;;;;;;;23.55;11.60;;;9.60;99.90;;;;;;5013244;28;20069;-81
2022/04/06 01:19:47;;;;;;;23.73;11.43;;;9.60;99.90;;;;;;5029290;28;20120;-80
2022/04/06 01:22:18;;;;;;;27.85;12.43;;;9.60;99.90;;;;;;5029420;28;20052;-81
2022/04/06 01:24:46;;;;;;;22.25;11.35;;;9.60;99.90;;;;;;5029776;28;20057;-81
2022/04/06 01:27:12;;;;;;;25.38;11.80;;;9.60;99.90;;;;;;5012987;28;20049;-81
2022/04/06 01:29:40;;;;;;;23.67;10.48;;;9.60;99.90;;;;;;5029553;28;20079;-81
2022/04/06 01:32:20;;;;;;;26.95;11.30;;;9.60;99.90;;;;;;5029617;28;20071;-81
2022/04/06 01:34:47;;;;;;;24.50;9.75;;;9.50;99.90;;;;;;5029450;28;20473;-81
2022/04/06 01:37:14;;;;;;;22.58;10.02;;;9.50;99.90;;;;;;5029374;28;20038;-81
2022/04/06 01:39:41;;;;;;;21.73;10.57;;;9.50;99.90;;;;;;5029453;28;20045;-81
2022/04/06 01:42:08;;;;;;;22.33;10.10;;;9.50;99.90;;;;;;5029346;28;20053;-81
2022/04/06 01:44:34;;;;;;;20.08;9.82;;;9.60;99.90;;;;;;5012893;28;20048;-81
2022/04/06 01:47:02;;;;;;;23.10;9.98;;;9.60;99.90;;;;;;5031396;28;20048;-81
2022/04/06 01:52:13;;;;;;;24.05;9.43;;;9.50;99.90;;;;;;5032709;28;20491;-81
2022/04/06 01:55:00;;;;;;;24.98;10.00;;;9.50;99.90;;;;;;5016307;28;20033;-81
2022/04/06 01:57:26;;;;;;;23.60;9.95;;;9.50;99.90;;;;;;5016286;28;20037;-81
2022/04/06 01:59:53;;;;;;;23.75;9.13;;;9.50;99.90;;;;;;5032156;28;20124;-81
2022/04/06 02:02:21;;;;;;;25.65;9.88;;;9.50;99.90;;;;;;5032634;28;20120;-81
2022/04/06 02:04:47;;;;;;;25.17;9.90;;;9.50;99.90;;;;;;5032599;28;20049;-81
2022/04/06 02:07:15;;;;;;;20.80;9.40;;;9.50;99.90;;;;;;5016269;28;20096;-81
2022/04/06 02:09:41;;;;;;;20.20;9.48;;;9.50;99.90;;;;;;5032293;28;20513;-81
2022/04/06 02:12:08;;;;;;;21.42;9.68;;;9.50;99.90;;;;;;5032385;28;20041;-81
2022/04/06 02:14:34;;;;;;;20.50;8.50;;;9.50;99.90;;;;;;5032250;28;20459;-81
2022/04/06 02:17:00;;;;;;;19.08;7.93;;;9.50;99.90;;;;;;5032385;28;20087;-81
2022/04/06 02:19:26;;;;;;;21.88;8.57;;;9.50;99.90;;;;;;5032566;28;20033;-81
2022/04/06 02:21:52;;;;;;;22.67;8.48;;;9.50;99.90;;;;;;5031924;28;20515;-81
2022/04/06 02:24:18;;;;;;;19.00;8.02;;;9.50;99.90;;;;;;5032377;28;20103;-81
2022/04/06 02:26:44;;;;;;;21.35;8.60;;;9.50;99.90;;;;;;5016104;28;20179;-81
2022/04/06 02:29:10;;;;;;;20.10;7.63;;;9.50;99.90;;;;;;5031826;28;20045;-81
2022/04/06 02:31:35;;;;;;;21.08;7.53;;;9.50;99.90;;;;;;5014437;28;20045;-81
2022/04/06 02:34:01;;;;;;;18.88;8.07;;;9.50;99.90;;;;;;5015668;28;20041;-81
2022/04/06 02:36:27;;;;;;;19.95;8.13;;;9.50;99.90;;;;;;5032068;28;20040;-81
2022/04/06 02:38:52;;;;;;;20.05;7.50;;;9.50;99.90;;;;;;5015487;28;20069;-81
2022/04/06 02:41:18;;;;;;;23.42;7.65;;;9.50;99.90;;;;;;5031722;28;20045;-81
2022/04/06 02:43:43;;;;;;;22.27;7.78;;;9.50;99.90;;;;;;5015262;28;20041;-81
2022/04/06 02:46:09;;;;;;;19.85;7.43;;;9.50;99.90;;;;;;5031653;28;20077;-81
2022/04/06 02:48:35;;;;;;;16.90;7.03;;;9.50;99.90;;;;;;5032033;28;20048;-81
2022/04/06 02:51:00;;;;;;;18.40;7.57;;;9.50;99.90;;;;;;5031370;28;20525;-81
2022/04/06 02:53:26;;;;;;;18.90;8.00;;;9.50;99.90;;;;;;5031641;28;20046;-81
2022/04/06 02:55:51;;;;;;;21.00;8.50;;;9.50;99.90;;;;;;5015134;28;20043;-81
2022/04/06 02:58:17;;;;;;;19.60;8.23;;;9.50;99.90;;;;;;5031250;28;20117;-81
2022/04/06 03:00:43;;;;;;;23.42;8.77;;;9.50;99.90;;;;;;5014810;28;20415;-81
2022/04/06 03:03:08;;;;;;;27.00;9.25;;;9.60;99.90;;;;;;5031278;28;20041;-81
2022/04/06 03:05:34;;;;;;;24.80;9.20;;;9.60;99.90;;;;;;5030602;28;20044;-81
2022/04/06 03:08:00;;;;;;;18.23;7.88;;;9.60;99.90;;;;;;5031401;28;20124;-81
2022/04/06 03:10:25;;;;;;;24.58;9.52;;;9.50;99.90;;;;;;5031166;28;20095;-81
2022/04/06 03:12:51;;;;;;;25.20;9.15;;;9.60;99.90;;;;;;5030936;28;20087;-81
2022/04/06 03:15:17;;;;;;;24.48;9.32;;;9.60;99.90;;;;;;5031350;28;20041;-81
2022/04/06 03:17:42;;;;;;;21.02;9.45;;;9.60;99.90;;;;;;5031496;28;20167;-81
2022/04/06 03:20:13;;;;;;;27.45;11.68;;;9.50;99.90;;;;;;5030865;28;20038;-81
2022/04/06 03:22:39;;;;;;;26.20;11.10;;;9.60;99.90;;;;;;5031219;28;20033;-81
2022/04/06 03:25:06;;;;;;;22.83;11.20;;;9.50;99.90;;;;;;5031318;28;20572;-81
2022/04/06 03:27:32;;;;;;;25.27;10.63;;;9.60;99.90;;;;;;5014571;28;20091;-81
2022/04/06 03:29:58;;;;;;;28.58;11.43;;;9.60;99.90;;;;;;5030893;28;20045;-81
2022/04/06 03:32:23;;;;;;;22.55;10.90;;;9.60;99.90;;;;;;5014523;28;20692;-81
2022/04/06 03:34:49;;;;;;;28.75;11.50;;;9.60;99.90;;;;;;5030802;28;20045;-81
2022/04/06 03:37:14;;;;;;;23.58;11.23;;;9.60;99.90;;;;;;5030896;28;20041;-81
2022/04/06 03:39:40;;;;;;;28.30;12.15;;;9.60;99.90;;;;;;5030854;28;20044;-81
2022/04/06 03:42:06;;;;;;;26.55;12.25;;;9.60;99.90;;;;;;5030605;28;20080;-81
2022/04/06 03:44:31;;;;;;;23.13;11.57;;;9.60;99.90;;;;;;5014297;28;20044;-81
2022/04/06 03:46:57;;;;;;;25.45;11.65;;;9.60;99.90;;;;;;5014070;28;20095;-81
2022/04/06 03:49:22;;;;;;;23.88;11.68;;;9.60;99.90;;;;;;5030834;28;20124;-81
2022/04/06 03:51:48;;;;;;;30.58;12.73;;;9.60;99.90;;;;;;5030390;28;20131;-81
2022/04/06 03:54:13;;;;;;;26.63;11.88;;;9.60;99.90;;;;;;5030684;28;20123;-81
2022/04/06 03:56:39;;;;;;;30.67;13.52;;;9.60;99.90;;;;;;5030801;28;20080;-81
2022/04/06 03:59:05;;;;;;;26.10;12.50;;;9.60;99.90;;;;;;5029270;28;20481;-81
2022/04/06 04:01:31;;;;;;;26.10;11.38;;;9.60;99.90;;;;;;5030271;28;20041;-81
2022/04/06 04:03:57;;;;;;;22.20;12.20;;;9.60;99.90;;;;;;5030040;28;20514;-81
2022/04/06 04:06:23;;;;;;;23.25;11.85;;;9.60;99.90;;;;;;5030155;28;20526;-81
2022/04/06 04:08:48;;;;;;;21.60;11.35;;;9.60;99.90;;;;;;5029793;28;20037;-81
2022/04/06 04:11:14;;;;;;;21.73;10.80;;;9.60;99.90;;;;;;5013604;28;20049;-81
2022/04/06 04:13:39;;;;;;;26.80;12.00;;;9.60;99.90;;;;;;5030052;28;20041;-81
2022/04/06 04:16:06;;;;;;;24.73;11.55;;;9.60;99.90;;;;;;5030176;28;20046;-82
2022/04/06 04:18:31;;;;;;;25.95;11.43;;;9.70;99.90;;;;;;5030400;28;20045;-82
2022/04/06 04:23:41;;;;;;;21.27;11.15;;;9.60;99.90;;;;;;5030164;28;20052;-81
2022/04/06 04:26:07;;;;;;;23.17;10.60;;;9.60;99.90;;;;;;5030114;28;20041;-81
2022/04/06 04:28:32;;;;;;;25.10;11.30;;;9.60;99.90;;;;;;5030177;28;20045;-81
2022/04/06 04:30:58;;;;;;;20.13;9.20;;;9.60;99.90;;;;;;5029875;28;20037;-81
2022/04/06 04:33:23;;;;;;;21.10;9.82;;;9.60;99.90;;;;;;5030267;28;20044;-81
2022/04/06 04:35:49;;;;;;;23.75;10.25;;;9.60;99.90;;;;;;5013615;28;20041;-81
2022/04/06 04:38:15;;;;;;;18.40;9.93;;;9.60;99.90;;;;;;5030026;28;20044;-81
2022/04/06 04:40:40;;;;;;;22.08;10.07;;;9.50;99.90;;;;;;5013487;28;20414;-81
2022/04/06 04:43:06;;;;;;;24.73;9.88;;;9.60;99.90;;;;;;5029579;28;20041;-81
2022/04/06 04:45:31;;;;;;;19.77;8.90;;;9.60;99.90;;;;;;5013555;28;20045;-81
2022/04/06 04:47:57;;;;;;;21.98;9.48;;;9.60;99.90;;;;;;5029925;28;20134;-81
2022/04/06 04:50:23;;;;;;;16.70;8.90;;;9.60;99.90;;;;;;5013283;28;20057;-81
2022/04/06 04:52:49;;;;;;;19.70;10.23;;;9.60;99.90;;;;;;5029608;28;20136;-81
2022/04/06 04:55:14;;;;;;;23.73;10.40;;;9.60;99.90;;;;;;5013310;28;20042;-81
2022/04/06 04:57:40;;;;;;;21.05;9.45;;;9.50;99.90;;;;;;5029678;28;20037;-81
2022/04/06 05:00:08;;;;;;;25.27;9.18;;;9.60;99.90;;;;;;5029500;28;20037;-81
2022/04/06 05:02:36;;;;;;;19.75;8.73;;;9.50;99.90;;;;;;5029615;28;20037;-82
2022/04/06 05:05:05;;;;;;;20.10;8.73;;;9.50;99.90;;;;;;5028498;28;20049;-81
2022/04/06 05:07:31;;;;;;;18.95;9.23;;;9.50;99.90;;;;;;5030032;28;20521;-81
2022/04/06 05:09:56;;;;;;;22.75;9.60;;;9.50;99.90;;;;;;5013045;28;20091;-81
2022/04/06 05:12:22;;;;;;;18.98;8.80;;;9.50;99.90;;;;;;5029482;28;20076;-81
2022/04/06 05:14:47;;;;;;;23.65;8.25;;;9.50;99.90;;;;;;5029723;28;20159;-81
2022/04/06 05:17:13;;;;;;;16.75;7.90;;;9.50;99.90;;;;;;5029896;28;20129;-81
2022/04/06 05:19:39;;;;;;;24.52;8.80;;;9.50;99.90;;;;;;5029249;28;20038;-81
2022/04/06 05:22:06;;;;;;;19.88;8.70;;;9.50;99.90;;;;;;5015413;28;20038;-81
2022/04/06 05:24:31;;;;;;;15.50;7.25;;;9.50;99.90;;;;;;5033738;28;20056;-81
2022/04/06 05:26:59;;;;;;;18.23;7.82;;;9.50;99.90;;;;;;5032773;28;20042;-81
2022/04/06 05:29:24;;;;;;;26.25;8.48;;;9.50;99.90;;;;;;5032715;28;20038;-81
2022/04/06 05:31:50;;;;;;;18.48;6.88;;;9.50;99.90;;;;;;5016832;28;20041;-81
2022/04/06 05:34:16;;;;;;;17.77;7.80;;;9.50;99.90;;;;;;5033247;28;20040;-81
2022/04/06 05:36:42;;;;;;;17.25;7.05;;;9.50;99.90;;;;;;5033274;28;20042;-81
2022/04/06 05:39:08;;;;;;;17.33;7.22;;;9.40;99.90;;;;;;5033306;28;20052;-81
2022/04/06 05:41:34;;;;;;;16.52;6.30;;;9.40;99.90;;;;;;5032739;28;20049;-81
2022/04/06 05:43:59;;;;;;;17.67;6.55;;;9.40;99.90;;;;;;5032983;28;20041;-81
2022/04/06 05:46:25;;;;;;;16.20;6.15;;;9.40;99.90;;;;;;5032953;28;20120;-81
2022/04/06 05:48:51;;;;;;;18.75;6.72;;;9.40;99.90;;;;;;5032821;28;20095;-81
2022/04/06 05:51:16;;;;;;;16.67;6.28;;;9.40;99.90;;;;;;5031911;28;20451;-81
2022/04/06 05:53:42;;;;;;;15.35;6.35;;;9.40;99.90;;;;;;5032748;28;20424;-81
2022/04/06 05:56:08;;;;;;;14.65;5.20;;;9.40;99.90;;;;;;5032790;28;20446;-81
2022/04/06 05:58:33;;;;;;;16.33;5.43;;;9.40;99.90;;;;;;5016269;28;20501;-81
2022/04/06 06:00:59;;;;;;;17.50;5.35;;;9.40;99.90;;;;;;5032697;28;20044;-81
2022/04/06 06:03:26;;;;;;;16.27;5.47;;;9.40;99.90;;;;;;5032849;28;20033;-81
2022/04/06 06:05:51;;;;;;;13.98;5.47;;;9.40;99.90;;;;;;5031325;28;20041;-81
2022/04/06 06:08:17;;;;;;;14.07;5.13;;;9.40;99.90;;;;;;5016162;28;20133;-81
2022/04/06 06:10:42;;;;;;;16.42;5.00;;;9.40;99.90;;;;;;5032181;28;20133;-81
2022/04/06 06:13:08;;;;;;;15.60;4.70;;;9.50;99.90;;;;;;5032340;28;20076;-81
2022/04/06 06:15:34;;;;;;;11.68;4.22;;;9.50;99.90;;;;;;5032400;28;20096;-81
2022/04/06 06:17:59;;;;;;;13.52;3.95;;;9.40;99.90;;;;;;5032327;28;20491;-81
2022/04/06 06:20:27;;;;;;;14.50;4.13;;;9.40;99.90;;;;;;5032161;28;20570;-81
2022/04/06 06:22:52;;;;;;;11.80;3.85;;;9.40;99.90;;;;;;5032270;28;20083;-81
2022/04/06 06:25:18;;;;;;;11.27;3.72;;;9.50;99.90;;;;;;5031784;28;20121;-81
2022/04/06 06:27:46;;;;;;;15.93;3.88;;;9.50;99.90;;;;;;5014484;28;20495;-81
2022/04/06 06:30:13;;;;;;;11.15;3.72;;;9.50;99.90;;;;;;5030420;28;20510;-81
2022/04/06 06:32:40;;;;;;;11.02;3.67;;;9.50;99.90;;;;;;5013953;28;20491;-81
2022/04/06 06:35:08;;;;;;;12.38;3.30;;;9.50;99.90;;;;;;5030751;28;20045;-81
2022/04/06 06:37:33;;;;;;;11.63;2.85;;;9.50;99.90;;;;;;5013996;28;20544;-81
2022/04/06 06:39:59;;;;;;;11.77;3.03;;;9.50;99.90;;;;;;5030581;28;20124;-81
2022/04/06 06:42:25;;;;;;;12.13;2.83;;;9.50;99.90;;;;;;5031903;28;20128;-81
2022/04/06 06:44:51;;;;;;;15.57;3.30;;;9.50;99.90;;;;;;5031796;28;20514;-81
2022/04/06 06:47:16;;;;;;;11.98;2.83;;;9.50;99.90;;;;;;5030577;28;20052;-81
2022/04/06 06:49:46;;;;;;;16.02;2.72;;;9.50;99.90;;;;;;5030306;28;20045;-81
2022/04/06 06:52:13;;;;;;;12.27;2.65;;;9.50;99.90;;;;;;5031409;28;20034;-81
2022/04/06 06:54:39;;;;;;;8.35;2.80;;;9.40;99.90;;;;;;5031729;28;20041;-81
2022/04/06 06:57:05;;;;;;;11.50;3.30;;;9.40;99.90;;;;;;5031292;28;20491;-81
2022/04/06 06:59:30;;;;;;;11.95;3.88;;;9.40;99.90;;;;;;5032563;28;20037;-81
2022/04/06 07:01:56;;;;;;;11.18;2.53;;;9.40;99.90;;;;;;5031169;28;20052;-81
2022/04/06 07:04:24;;;;;;;11.35;2.80;;;9.50;99.90;;;;;;5031522;28;20041;-81
2022/04/06 07:06:50;;;;;;;11.88;2.83;;;9.40;99.90;;;;;;5014664;28;20101;-80
2022/04/06 07:09:16;;;;;;;11.98;2.72;;;9.40;99.90;;;;;;5031551;28;20132;-81
2022/04/06 07:11:42;;;;;;;12.18;2.70;;;9.40;99.90;;;;;;5011670;28;20041;-78
2022/04/06 07:14:08;;;;;;;16.73;3.58;;;9.40;99.90;;;;;;5014995;28;20041;-81
2022/04/06 07:16:33;;;;;;;10.25;2.60;;;9.40;99.90;;;;;;5015980;28;20041;-80
2022/04/06 07:18:59;;;;;;;10.52;2.97;;;9.40;99.90;;;;;;5031891;28;20044;-81
2022/04/06 07:21:25;;;;;;;11.88;2.95;;;9.40;99.90;;;;;;5031215;28;20484;-81
2022/04/06 07:23:51;;;;;;;10.32;2.75;;;9.40;99.90;;;;;;5031694;28;20049;-81
2022/04/06 07:26:17;;;;;;;12.63;3.28;;;9.50;99.90;;;;;;5030962;28;20048;-81
2022/04/06 07:28:46;;;;;;;11.32;3.13;;;9.50;99.90;;;;;;5030561;28;20038;-80
2022/04/06 07:31:12;;;;;;;11.52;2.85;;;9.50;99.90;;;;;;5030926;28;20048;-80
2022/04/06 07:33:38;;;;;;;9.48;2.70;;;9.50;99.90;;;;;;5031175;28;20037;-81
2022/04/06 07:36:05;;;;;;;11.63;3.47;;;9.50;99.90;;;;;;5031047;28;20068;-81
2022/04/06 07:38:31;;;;;;;12.95;4.45;;;9.50;99.90;;;;;;5031037;28;20111;-81
2022/04/06 07:40:57;;;;;;;11.52;3.65;;;9.50;99.90;;;;;;5030226;28;20520;-82
2022/04/06 07:43:23;;;;;;;16.50;3.90;;;9.50;99.90;;;;;;5013583;28;20042;-82
2022/04/06 07:45:49;;;;;;;11.73;3.67;;;9.50;99.90;;;;;;5030539;28;20049;-82
2022/04/06 07:48:14;;;;;;;13.73;4.68;;;9.50;99.90;;;;;;5013987;28;20041;-82
2022/04/06 07:50:40;;;;;;;16.05;4.90;;;9.50;99.90;;;;;;5030049;28;20072;-81
2022/04/06 07:53:06;;;;;;;14.43;4.75;;;9.50;99.90;;;;;;5030502;28;20037;-81
2022/04/06 07:55:31;;;;;;;12.48;4.80;;;9.50;99.90;;;;;;5030526;28;20042;-81
2022/04/06 07:57:57;;;;;;;13.50;4.60;;;9.60;99.90;;;;;;5029404;28;20076;-80
2022/04/06 08:00:23;;;;;;;15.20;5.13;;;9.50;99.90;;;;;;5029860;28;20069;-81
2022/04/06 08:02:49;;;;;;;13.13;5.07;;;9.50;99.90;;;;;;5013990;28;20038;-81
2022/04/06 08:05:15;;;;;;;11.13;4.70;;;9.50;99.90;;;;;;5028677;28;20045;-81
2022/04/06 08:07:43;;;;;;;12.65;5.53;;;9.50;99.90;;;;;;5013550;28;20487;-80
2022/04/06 08:10:14;;;;;;;15.05;6.10;;;9.50;99.90;;;;;;5029896;28;20041;-80
2022/04/06 08:12:41;;;;;;;14.43;5.82;;;9.50;99.90;;;;;;5030106;28;20044;-80
2022/04/06 08:15:08;;;;;;;15.73;6.53;;;9.60;99.90;;;;;;5030155;28;20072;-81
2022/04/06 08:17:39;;;;;;;15.95;6.10;;;9.60;99.90;;;;;;5030183;28;20042;-80
2022/04/06 08:20:06;;;;;;;18.48;6.47;;;9.60;99.90;;;;;;5030174;28;20115;-80
2022/04/06 08:22:35;;;;;;;18.73;7.07;;;9.60;99.90;;;;;;5013717;28;20068;-80
2022/04/06 08:25:10;;;;;;;18.58;7.55;;;9.70;99.90;;;;;;5013357;28;20041;-81
2022/04/06 08:27:39;;;;;;;16.65;6.70;;;9.70;99.90;;;;;;5029936;28;20049;-81
2022/04/06 08:30:10;;;;;;;15.77;7.03;;;9.70;99.90;;;;;;5029379;28;20050;-81
2022/04/06 08:32:36;;;;;;;13.85;7.30;;;9.70;99.90;;;;;;5030020;28;20045;-81
2022/04/06 08:35:02;;;;;;;15.57;6.63;;;9.70;99.90;;;;;;5029965;28;20041;-82
2022/04/06 08:37:38;;;;;;;15.63;6.80;;;9.70;99.90;;;;;;5013658;28;20037;-82
2022/04/06 08:40:06;;;;;;;16.02;7.22;;;9.80;99.90;;;;;;5029604;28;20450;-81
2022/04/06 08:42:41;;;;;;;18.38;6.32;;;9.80;99.90;;;;;;5029797;28;20080;-81
2022/04/06 08:45:08;;;;;;;15.70;6.80;;;9.80;99.90;;;;;;5029951;28;20037;-81
2022/04/06 08:47:33;;;;;;;15.10;7.65;;;9.80;99.90;;;;;;5029391;28;20741;-81
2022/04/06 08:50:00;;;;;;;16.02;5.72;;;9.90;99.90;;;;;;5029297;28;20128;-81
2022/04/06 08:52:26;;;;;;;15.75;6.28;;;9.90;99.90;;;;;;5029294;28;20042;-81
2022/04/06 08:54:52;;;;;;;12.50;6.30;;;10.00;99.90;;;;;;5030172;28;20194;-81
2022/04/06 08:57:18;;;;;;;14.43;6.13;;;10.10;99.90;;;;;;5053310;28;20530;-82
2022/04/06 08:59:47;;;;;;;11.85;5.63;;;10.20;99.90;;;;;;5053578;28;20047;-81
2022/04/06 09:02:20;;;;;;;13.35;5.25;;;10.20;99.90;;;;;;5053711;28;20116;-81
2022/04/06 09:04:50;;;;;;;13.50;5.13;;;10.10;99.90;;;;;;5045282;28;20625;-81
2022/04/06 09:07:20;;;;;;;13.50;4.80;;;10.10;99.90;;;;;;5033609;28;20051;-81
2022/04/06 09:09:49;;;;;;;14.27;4.43;;;10.10;99.90;;;;;;5026101;28;20053;-81
2022/04/06 09:12:24;;;;;;;11.55;4.65;;;10.00;99.90;;;;;;5037366;28;20040;-81
2022/04/06 09:15:10;;;;;;;11.75;4.38;;;10.00;99.90;;;;;;5043657;28;20111;-81
2022/04/06 09:17:48;;;;;;;14.23;3.92;;;10.10;99.90;;;;;;5040314;28;20045;-82
2022/04/06 09:20:15;;;;;;;11.93;4.25;;;10.00;99.90;;;;;;5050656;28;20033;-81
2022/04/06 09:22:41;;;;;;;12.63;4.57;;;10.00;99.90;;;;;;5036304;28;20049;-82
2022/04/06 09:25:09;;;;;;;12.68;3.95;;;10.00;99.90;;;;;;5053162;28;20052;-82
2022/04/06 09:27:38;;;;;;;14.98;4.57;;;10.00;99.90;;;;;;5053104;28;20056;-82
2022/04/06 09:30:05;;;;;;;12.07;3.28;;;10.00;99.90;;;;;;5052721;28;20545;-81
2022/04/06 09:32:30;;;;;;;14.20;3.45;;;10.00;99.90;;;;;;5052797;28;20151;-81
2022/04/06 09:34:56;;;;;;;11.73;3.38;;;10.00;99.90;;;;;;5053324;28;20087;-81
2022/04/06 09:37:28;;;;;;;13.80;3.63;;;10.00;99.90;;;;;;5053045;28;20037;-81
2022/04/06 09:39:56;;;;;;;12.15;3.60;;;10.00;99.90;;;;;;5029090;28;20053;-81
2022/04/06 09:42:27;;;;;;;11.82;2.85;;;10.00;99.90;;;;;;5032456;28;20037;-82
2022/04/06 09:47:51;;;;;;;10.73;3.03;;;10.10;99.90;;;;;;5032600;28;20522;-82
2022/04/06 09:50:22;;;;;;;10.35;2.85;;;10.00;99.90;;;;;;5030095;28;20050;-81
2022/04/06 09:52:49;;;;;;;10.30;3.33;;;10.10;99.90;;;;;;5032807;28;20047;-82
2022/04/06 09:55:16;;;;;;;12.57;3.63;;;10.10;99.90;;;;;;5032719;28;20103;-82
2022/04/06 09:57:53;;;;;;;10.77;3.47;;;10.00;99.90;;;;;;5032682;28;20041;-81
2022/04/06 10:00:24;;;;;;;8.13;2.90;;;10.00;99.90;;;;;;5016408;28;20041;-81
2022/04/06 10:03:05;;;;;;;15.50;4.20;;;10.00;99.90;;;;;;5016348;28;20187;-81
2022/04/06 10:05:33;;;;;;;10.10;3.35;;;10.00;99.90;;;;;;5032758;28;20191;-81
2022/04/06 10:08:09;;;;;;;11.10;3.83;;;10.00;99.90;;;;;;5031242;28;20410;-81
2022/04/06 10:10:38;;;;;;;9.75;3.50;;;10.10;99.90;;;;;;5014348;28;20045;-81
2022/04/06 10:13:04;;;;;;;11.75;4.75;;;10.10;99.90;;;;;;5015739;28;20039;-81
2022/04/06 10:15:31;;;;;;;12.73;4.10;;;10.20;99.90;;;;;;5032470;28;20044;-82
2022/04/06 10:17:57;;;;;;;10.45;3.80;;;10.20;99.90;;;;;;5032684;28;20506;-82
2022/04/06 10:20:37;;;;;;;10.07;4.15;;;10.20;99.90;;;;;;5031947;28;20049;-83
2022/04/06 10:23:09;;;;;;;13.00;4.35;;;10.20;99.90;;;;;;5032257;28;20034;-83
2022/04/06 10:25:59;;;;;;;9.95;4.35;;;10.20;99.90;;;;;;5031990;28;20049;-83
2022/04/06 10:28:24;;;;;;;12.70;4.60;;;10.20;99.90;;;;;;5032153;28;20507;-83
2022/04/06 10:31:12;;;;;;;12.48;3.90;;;10.20;99.90;;;;;;5032182;28;20044;-83
2022/04/06 10:33:38;;;;;;;11.50;4.47;;;10.20;99.90;;;;;;5015672;28;20076;-83
2022/04/06 10:36:40;;;;;;;11.25;4.53;;;10.20;99.90;;;;;;5032335;28;20087;-83
2022/04/06 10:39:05;;;;;;;12.63;4.43;;;10.30;99.90;;;;;;5001138;28;20049;-83
2022/04/06 10:41:32;;;;;;;12.73;5.15;;;10.30;99.90;;;;;;5031979;28;20140;-83
2022/04/06 10:43:58;;;;;;;12.70;4.63;;;10.30;99.90;;;;;;5015835;28;20410;-83
2022/04/06 10:46:35;;;;;;;13.40;5.13;;;10.30;99.90;;;;;;5015574;28;20128;-82
2022/04/06 10:49:10;;;;;;;10.93;4.60;;;10.40;99.90;;;;;;5032133;28;20503;-82
2022/04/06 10:51:41;;;;;;;11.25;4.72;;;10.40;99.90;;;;;;5031232;28;20037;-82
2022/04/06 10:54:12;;;;;;;12.52;5.55;;;10.40;99.90;;;;;;5032014;28;20115;-82
2022/04/06 10:56:52;;;;;;;12.48;5.75;;;10.40;99.90;;;;;;5031905;28;20033;-82
2022/04/06 10:59:22;;;;;;;13.45;5.22;;;10.30;99.90;;;;;;5015725;28;20403;-83
2022/04/06 11:01:49;;;;;;;15.10;6.32;;;10.30;99.90;;;;;;5015326;28;20045;-82
2022/04/06 11:04:22;;;;;;;12.77;6.22;;;10.30;99.90;;;;;;5030845;28;20095;-83
2022/04/06 11:06:48;;;;;;;10.45;4.75;;;10.20;99.90;;;;;;5015001;28;20049;-82
2022/04/06 11:12:29;;;;;;;13.48;5.72;;;10.30;99.90;;;;;;5031716;28;20159;-82
2022/04/06 11:14:58;;;;;;;13.25;5.80;;;10.20;99.90;;;;;;5031255;28;20052;-82
2022/04/06 11:17:34;;;;;;;11.07;5.30;;;10.20;99.90;;;;;;5031616;28;20033;-82
2022/04/06 11:20:21;;;;;;;13.13;5.60;;;10.20;99.90;;;;;;5014582;28;20037;-82
2022/04/06 11:22:46;;;;;;;12.88;5.45;;;10.20;99.90;;;;;;5031395;28;20049;-82
2022/04/06 11:25:15;;;;;;;12.35;5.78;;;10.20;99.90;;;;;;5030966;28;20049;-82
2022/04/06 11:27:42;;;;;;;12.52;5.88;;;10.10;99.90;;;;;;5014804;28;20053;-82
2022/04/06 11:30:13;;;;;;;10.45;5.18;;;10.10;99.90;;;;;;5030858;28;20037;-82
2022/04/06 11:32:44;;;;;;;12.52;5.90;;;10.10;99.90;;;;;;5014707;28;20038;-81
2022/04/06 11:35:11;;;;;;;14.43;5.78;;;10.00;99.90;;;;;;5031024;28;20046;-82
2022/04/06 11:37:46;;;;;;;13.48;6.38;;;10.00;99.90;;;;;;5029872;28;20037;-81
2022/04/06 11:40:13;;;;;;;12.73;6.60;;;10.00;99.90;;;;;;5014323;28;20091;-82
2022/04/06 11:42:40;;;;;;;11.65;5.25;;;10.00;99.90;;;;;;5031044;28;20069;-81
2022/04/06 11:45:07;;;;;;;12.00;6.50;;;10.00;99.90;;;;;;5014638;28;20095;-81
2022/04/06 11:47:37;;;;;;;14.80;6.13;;;10.10;99.90;;;;;;5031147;28;20454;-81
2022/04/06 11:50:10;;;;;;;11.77;5.88;;;10.10;99.90;;;;;;5030949;28;20053;-81
2022/04/06 11:52:40;;;;;;;11.63;5.72;;;10.10;99.90;;;;;;5012125;28;20128;-82
2022/04/06 11:55:07;;;;;;;13.07;5.78;;;10.20;99.90;;;;;;5030596;28;20643;-81
2022/04/06 11:57:42;;;;;;;11.32;6.00;;;10.20;99.90;;;;;;5014434;28;20045;-82
2022/04/06 12:00:10;;;;;;;12.13;6.15;;;10.20;99.90;;;;;;5014100;28;20487;-82
2022/04/06 12:02:56;;;;;;;11.43;5.30;;;10.30;99.90;;;;;;5030475;28;20034;-82
2022/04/06 12:05:24;;;;;;;10.63;5.95;;;10.30;99.90;;;;;;5014327;28;20041;-82
2022/04/06 12:08:12;;;;;;;14.93;7.28;;;10.30;99.90;;;;;;5014297;28;20056;-83
2022/04/06 12:10:48;;;;;;;13.00;6.47;;;10.20;99.90;;;;;;5030423;28;20653;-83
2022/04/06 12:13:14;;;;;;;13.95;7.28;;;10.30;99.90;;;;;;5030095;28;20450;-83
2022/04/06 12:15:44;;;;;;;10.38;6.28;;;10.40;99.90;;;;;;5030339;28;20045;-83
2022/04/06 12:18:09;;;;;;;13.90;8.13;;;10.60;99.90;;;;;;5030204;28;20077;-83
2022/04/06 12:20:35;;;;;;;13.57;7.15;;;10.70;99.90;;;;;;5030113;28;20069;-83
2022/04/06 12:23:08;;;;;;;12.73;7.35;;;10.70;99.90;;;;;;5030522;28;20029;-83
2022/04/06 12:25:34;;;;;;;;;;;10.80;99.90;;;;;;5030745;28;20049;-83
2022/04/06 12:28:25;;;;;;;13.43;7.55;;;10.90;99.90;;;;;;5030441;28;19920;-83
2022/04/06 12:30:55;;;;;;;13.07;7.72;;;10.90;99.90;;;;;;5013301;28;20050;-83
2022/04/06 12:33:51;;;;;;;14.00;7.18;;;10.90;99.90;;;;;;5030116;28;20099;-83
2022/04/06 12:36:25;;;;;;;12.48;7.55;;;10.80;99.90;;;;;;5030167;28;20041;-83
2022/04/06 12:39:13;;;;;;;13.82;7.43;;;10.80;99.90;;;;;;5030507;28;20368;-82
2022/04/06 12:42:16;;;;;;;13.55;7.28;;;10.70;99.90;;;;;;5029860;28;20068;-83
2022/04/06 12:44:57;;;;;;;13.10;6.60;;;10.70;99.90;;;;;;5030281;28;20144;-83
2022/04/06 12:47:23;;;;;;;13.50;6.90;;;10.70;99.90;;;;;;5030176;28;20053;-82
2022/04/06 12:49:49;;;;;;;11.02;6.95;;;10.70;99.90;;;;;;5013435;28;20120;-83
2022/04/06 12:52:25;;;;;;;12.48;7.15;;;10.60;99.90;;;;;;5029695;28;20171;-83
2022/04/06 12:55:06;;;;;;;12.95;6.80;;;10.60;99.90;;;;;;5029819;28;20168;-83
2022/04/06 12:57:34;;;;;;;12.25;6.43;;;10.60;99.90;;;;;;5013590;28;20029;-83